Pagrindinis puslapis
METAR-TAF:

METAR-TAF

Oro uostai :

Kirkenesas, Norvegija

platuma: 69-44N, ilguma: 029-54E, Aukštis: 9 m

Dabartinis oras

Ataskaita buvo paskelbta 27 minutes, ne 09:20 UTC
Vėjas 3 kt iš Rytų/Šiaurės Rytų
Temperatūra 10°C
Drėgmė 82%
Slėgis 996 hPa
Matomumas 10 km arba daugiau
Mažai debesys ne aukštis 700 ft
Išsisklaidę debesys ne aukštis 1300 ft
Su prošvaistėmis ne aukštis 2500 ft
lietus

METAR: ENKR 310920Z 06003KT 9999 -SHRA FEW007 SCT013 BKN025 10/07 Q0996 RMK WIND 731FT 08004KT

Laikas: 11:47 (09:47 UTC)

Prognozė

Ataskaita buvo paskelbta 1 valandą ir 47 minutes, ne 08:00 UTC
Prognozė galioja nuo 31 metu 09 UTC su 31 metu 18 UTC
Vėjas 5 kt iš Rytų/Pietryčių
Matomumas 10 km arba daugiau
Mažai debesys ne aukštis 2000 ft
Su prošvaistėmis ne aukštis 3500 ft
Tikimybė 30% :
Laikinai
nuo 31 metu 15 UTC su 31 metu 18 UTC
Su prošvaistėmis ne aukštis 900 ft

TAF: ENKR 310800Z 3109/3118 11005KT 9999 FEW020 BKN035 PROB30 TEMPO 3115/3118 BKN009

Orai ataskaitas ir orų prognozės (METAR, TAF).

turimą stotys yra geltonos ir raudonos taškus žemėlapyje.

Perkelti pele per norėdami pamatyti stoties vardą.

Tada spustelėkite, norėdami matyti oro stebėjimo ir prognozės.

Norėdami pakeisti žemėlapį: spustelėkite ant žalios mygtukų su juodo kryžiaus žemyn,; žalią mygtuką su brūkšneliu, jei norite nutolinti; arba žalių rodyklių gretimoms žemėlapius.


METAR-TAF: